Time;durP1;ratioP1;P1;durP2;ratioP2;P2;SDS_P1;SDS_P2;PMS_P1;PMS_P2;Temp;Humidity;BMP_temperature;BMP_pressure;BME280_temperature;BME280_humidity;BME280_pressure;Samples;Min_cycle;Max_cycle;Signal;HPM_P1;HPM_P2
2024/01/05 00:01:20;;;;;;;4.28;3.88;;;14.10;77.40;;;;;;4172336;28;20051;-51
2024/01/05 00:04:01;;;;;;;4.90;3.97;;;14.10;77.90;;;;;;4156076;28;20056;-50
2024/01/05 00:06:42;;;;;;;4.05;3.72;;;14.10;77.90;;;;;;4172554;28;20195;-49
2024/01/05 00:09:23;;;;;;;4.78;4.13;;;14.10;78.20;;;;;;4160290;28;20060;-47
2024/01/05 00:12:05;;;;;;;4.63;4.20;;;14.20;79.40;;;;;;4186844;28;20105;-52
2024/01/05 00:14:47;;;;;;;6.03;4.45;;;14.30;79.40;;;;;;4188787;28;20509;-53
2024/01/05 00:17:29;;;;;;;5.72;4.45;;;14.40;79.40;;;;;;4177024;28;20087;-48
2024/01/05 00:20:12;;;;;;;5.85;4.45;;;14.50;79.00;;;;;;4176070;28;20059;-52
2024/01/05 00:22:53;;;;;;;3.90;3.53;;;14.50;78.80;;;;;;4171321;28;20107;-47
2024/01/05 00:25:34;;;;;;;4.80;4.40;;;14.50;78.60;;;;;;4181886;28;20072;-47
2024/01/05 00:28:15;;;;;;;4.03;3.72;;;14.60;78.50;;;;;;4172904;28;20392;-49
2024/01/05 00:30:57;;;;;;;6.10;4.72;;;14.60;77.10;;;;;;4170505;28;20495;-49
2024/01/05 00:33:40;;;;;;;5.65;4.57;;;14.60;77.50;;;;;;4171991;28;20060;-51
2024/01/05 00:36:21;;;;;;;6.40;4.88;;;14.60;77.70;;;;;;4175476;28;20071;-52
2024/01/05 00:39:02;;;;;;;5.53;5.03;;;14.70;78.70;;;;;;4187034;28;20455;-49
2024/01/05 00:41:45;;;;;;;5.28;4.18;;;14.70;78.00;;;;;;4187768;28;20040;-54
2024/01/05 00:44:27;;;;;;;5.20;4.50;;;14.80;77.40;;;;;;4188080;28;20051;-53
2024/01/05 00:47:07;;;;;;;5.53;4.88;;;14.90;77.40;;;;;;4171728;28;20043;-50
2024/01/05 00:49:50;;;;;;;7.10;4.60;;;14.90;77.40;;;;;;4179169;28;20092;-52
2024/01/05 00:52:31;;;;;;;4.57;3.58;;;14.90;77.20;;;;;;4171703;28;20191;-51
2024/01/05 00:55:11;;;;;;;5.13;4.50;;;14.90;76.10;;;;;;4171758;28;20056;-51
2024/01/05 00:57:53;;;;;;;5.00;4.50;;;15.00;77.20;;;;;;4155532;28;20252;-52
2024/01/05 01:00:34;;;;;;;4.75;4.35;;;15.00;77.30;;;;;;4168011;28;20078;-50
2024/01/05 01:03:15;;;;;;;5.43;4.70;;;15.10;77.10;;;;;;4187417;28;20047;-53
2024/01/05 01:05:57;;;;;;;5.07;4.60;;;15.10;76.80;;;;;;4184939;28;20056;-51
2024/01/05 01:08:38;;;;;;;4.72;4.30;;;15.20;76.50;;;;;;4170908;28;20618;-50
2024/01/05 01:11:20;;;;;;;5.32;4.22;;;15.10;76.40;;;;;;4177289;28;20399;-50
2024/01/05 01:14:01;;;;;;;;;;;15.10;76.70;;;;;;4171274;28;20052;-50
2024/01/05 01:16:42;;;;;;;5.53;4.63;;;15.10;76.70;;;;;;4181752;28;19943;-46
2024/01/05 01:19:23;;;;;;;6.05;4.55;;;15.20;76.80;;;;;;4186913;28;20139;-53
2024/01/05 01:22:05;;;;;;;;;;;15.30;76.30;;;;;;4188009;28;20052;-49
2024/01/05 01:24:46;;;;;;;;;;;15.30;76.00;;;;;;4188315;28;19946;-49
2024/01/05 01:27:27;;;;;;;7.07;5.03;;;15.30;76.20;;;;;;4187431;28;19932;-47
2024/01/05 01:30:09;;;;;;;6.65;4.80;;;15.30;76.00;;;;;;4186897;28;20099;-50
2024/01/05 01:32:50;;;;;;;6.13;4.82;;;15.40;76.50;;;;;;4187363;28;20059;-49
2024/01/05 01:35:31;;;;;;;5.50;5.00;;;15.40;75.90;;;;;;4185707;28;20060;-48
2024/01/05 01:38:14;;;;;;;5.53;4.90;;;15.50;75.80;;;;;;4187550;28;20101;-50
2024/01/05 01:40:56;;;;;;;5.22;4.60;;;15.50;75.60;;;;;;4186518;28;20112;-50
2024/01/05 01:43:37;;;;;;;7.70;4.90;;;15.50;74.90;;;;;;4186843;28;20083;-50
2024/01/05 01:46:18;;;;;;;5.85;4.80;;;15.50;76.00;;;;;;4186604;28;20449;-49
2024/01/05 01:49:00;;;;;;;5.57;4.70;;;15.60;75.20;;;;;;4187057;28;20524;-51
2024/01/05 01:51:41;;;;;;;5.40;4.70;;;15.60;74.90;;;;;;4171458;28;20513;-49
2024/01/05 01:54:24;;;;;;;7.78;4.68;;;15.60;75.10;;;;;;4180999;28;20048;-52
2024/01/05 01:57:06;;;;;;;6.03;4.95;;;15.70;74.90;;;;;;4170480;28;20448;-51
2024/01/05 01:59:47;;;;;;;5.50;4.53;;;15.80;74.30;;;;;;4175500;28;20051;-53
2024/01/05 02:02:31;;;;;;;5.30;4.38;;;15.80;74.10;;;;;;4186528;28;20133;-52
2024/01/05 02:05:11;;;;;;;5.50;4.38;;;15.90;73.90;;;;;;4185379;28;20503;-51
2024/01/05 02:07:52;;;;;;;6.22;4.82;;;15.80;73.70;;;;;;4176896;28;20105;-47
2024/01/05 02:10:35;;;;;;;5.00;4.50;;;15.90;74.00;;;;;;4173867;28;20412;-52
2024/01/05 02:13:16;;;;;;;6.43;4.00;;;15.90;74.00;;;;;;4186855;28;20054;-49
2024/01/05 02:15:57;;;;;;;5.60;4.18;;;15.90;74.10;;;;;;4186564;28;20051;-49
2024/01/05 02:18:58;;;;;;;4.28;3.83;;;15.90;73.60;;;;;;4186592;28;20059;-49
2024/01/05 02:21:43;;;;;;;5.18;4.45;;;15.80;72.60;;;;;;4173217;28;20092;-52
2024/01/05 02:24:25;;;;;;;6.93;4.63;;;15.80;73.70;;;;;;4174538;28;20052;-48
2024/01/05 02:27:06;;;;;;;5.35;4.78;;;15.80;72.30;;;;;;4173608;28;20625;-49
2024/01/05 02:29:46;;;;;;;7.20;5.38;;;15.70;71.30;;;;;;4182269;28;20072;-50
2024/01/05 02:32:27;;;;;;;5.55;4.35;;;15.60;71.70;;;;;;4190102;28;20060;-52
2024/01/05 02:35:10;;;;;;;7.03;5.35;;;15.50;71.20;;;;;;4189655;28;20082;-50
2024/01/05 02:37:51;;;;;;;7.00;5.07;;;15.50;72.60;;;;;;4189838;28;20056;-47
2024/01/05 02:40:34;;;;;;;6.43;5.10;;;15.40;73.60;;;;;;4180337;28;20064;-51
2024/01/05 02:43:15;;;;;;;6.93;5.47;;;15.30;74.30;;;;;;4172117;28;20055;-48
2024/01/05 02:45:56;;;;;;;6.47;5.03;;;15.30;74.90;;;;;;4173068;28;20075;-50
2024/01/05 02:48:37;;;;;;;5.65;4.25;;;15.40;74.40;;;;;;4173345;28;20746;-48
2024/01/05 02:51:18;;;;;;;5.85;4.78;;;15.40;74.50;;;;;;4170670;28;20068;-53
2024/01/05 02:53:59;;;;;;;6.43;5.20;;;15.50;73.50;;;;;;4189854;28;20055;-52
2024/01/05 02:56:42;;;;;;;8.40;5.60;;;15.50;74.00;;;;;;4173611;28;20047;-53
2024/01/05 02:59:23;;;;;;;6.88;4.38;;;15.60;73.80;;;;;;4173896;28;20495;-37
2024/01/05 03:02:04;;;;;;;8.90;6.32;;;15.60;69.70;;;;;;4189348;28;20521;-37
2024/01/05 03:04:45;;;;;;;8.77;5.53;;;15.70;72.50;;;;;;4189769;28;20137;-37
2024/01/05 03:07:27;;;;;;;7.38;5.00;;;15.80;72.40;;;;;;4185638;28;20379;-37
2024/01/05 03:10:09;;;;;;;5.78;4.30;;;15.80;72.30;;;;;;4172709;28;20096;-37
2024/01/05 03:12:51;;;;;;;8.10;5.28;;;15.80;72.20;;;;;;4185413;28;20060;-37
2024/01/05 03:15:32;;;;;;;7.63;5.45;;;15.80;70.70;;;;;;4189009;28;20495;-37
2024/01/05 03:18:13;;;;;;;8.60;6.47;;;15.80;70.50;;;;;;4190015;28;20064;-37
2024/01/05 03:20:54;;;;;;;9.30;5.07;;;15.80;72.00;;;;;;4189559;28;20130;-37
2024/01/05 03:23:35;;;;;;;6.28;5.25;;;15.70;71.40;;;;;;4188932;28;20182;-38
2024/01/05 03:26:16;;;;;;;7.55;5.22;;;15.70;70.60;;;;;;4189271;28;20118;-37
2024/01/05 03:28:59;;;;;;;6.18;5.30;;;15.60;71.80;;;;;;4186260;28;20059;-37
2024/01/05 03:31:40;;;;;;;8.38;5.28;;;15.60;70.90;;;;;;4156292;28;20054;-37
2024/01/05 03:34:21;;;;;;;6.95;5.78;;;15.50;71.00;;;;;;4162247;28;20518;-37
2024/01/05 03:37:02;;;;;;;8.75;5.97;;;15.50;70.00;;;;;;4172825;28;20051;-37
2024/01/05 03:39:43;;;;;;;6.50;5.35;;;15.50;71.20;;;;;;4189115;28;20056;-37
2024/01/05 03:42:24;;;;;;;6.85;5.50;;;15.60;71.80;;;;;;4189157;28;20071;-37
2024/01/05 03:45:08;;;;;;;6.22;4.68;;;15.70;71.80;;;;;;4189335;28;20056;-37
2024/01/05 03:47:49;;;;;;;9.30;6.50;;;15.70;69.40;;;;;;4189274;28;20170;-37
2024/01/05 03:50:30;;;;;;;7.47;5.35;;;15.80;70.90;;;;;;4187185;28;20118;-37
2024/01/05 03:53:11;;;;;;;6.68;5.35;;;15.80;70.00;;;;;;4188227;28;20125;-37
2024/01/05 03:55:52;;;;;;;6.40;5.20;;;15.80;68.00;;;;;;4186587;28;20055;-38
2024/01/05 03:58:34;;;;;;;4.05;3.65;;;15.80;68.80;;;;;;4188514;28;20052;-38
2024/01/05 04:01:16;;;;;;;7.90;5.80;;;15.80;69.40;;;;;;4188230;28;20055;-38
2024/01/05 04:03:57;;;;;;;5.60;4.53;;;15.70;68.60;;;;;;4187423;28;20051;-37
2024/01/05 04:06:38;;;;;;;7.07;5.32;;;15.70;69.90;;;;;;4188685;28;20098;-38
2024/01/05 04:09:19;;;;;;;6.63;5.03;;;15.70;68.50;;;;;;4188249;28;20189;-37
2024/01/05 04:12:00;;;;;;;6.22;4.93;;;15.60;67.30;;;;;;4160626;28;20088;-37
2024/01/05 04:14:41;;;;;;;7.55;5.00;;;15.60;69.00;;;;;;4155805;28;20064;-37
2024/01/05 04:17:24;;;;;;;5.22;4.82;;;15.60;68.60;;;;;;4172098;28;20056;-38
2024/01/05 04:20:06;;;;;;;5.63;5.10;;;15.60;67.50;;;;;;4179165;28;20093;-38
2024/01/05 04:22:47;;;;;;;6.20;5.00;;;15.60;68.40;;;;;;4186681;28;20052;-37
2024/01/05 04:25:30;;;;;;;5.35;4.47;;;15.50;69.10;;;;;;4172091;28;20068;-37
2024/01/05 04:28:10;;;;;;;8.60;5.25;;;15.50;70.00;;;;;;4171669;28;20056;-37
2024/01/05 04:30:51;;;;;;;7.10;4.45;;;15.50;70.10;;;;;;4172103;28;20498;-37
2024/01/05 04:33:34;;;;;;;5.95;5.05;;;15.40;70.80;;;;;;4172190;28;20511;-37
2024/01/05 04:36:16;;;;;;;5.85;4.90;;;15.40;71.80;;;;;;4172726;28;20068;-37
2024/01/05 04:38:57;;;;;;;6.30;4.88;;;15.40;71.50;;;;;;4173179;28;20070;-38
2024/01/05 04:41:39;;;;;;;5.68;4.55;;;15.60;71.10;;;;;;4171224;28;20060;-37
2024/01/05 04:44:20;;;;;;;5.38;4.30;;;15.70;70.80;;;;;;4188296;28;20054;-37
2024/01/05 04:47:01;;;;;;;6.95;5.18;;;15.80;70.70;;;;;;4188623;28;20056;-37
2024/01/05 04:49:44;;;;;;;5.78;5.15;;;15.90;69.60;;;;;;4187776;28;20055;-37
2024/01/05 04:52:25;;;;;;;5.47;4.97;;;15.90;68.00;;;;;;4186216;28;20063;-37
2024/01/05 04:55:07;;;;;;;6.40;4.82;;;15.90;68.90;;;;;;4187770;28;20078;-38
2024/01/05 04:57:48;;;;;;;4.72;4.22;;;15.90;69.40;;;;;;4187074;28;20055;-37
2024/01/05 05:00:29;;;;;;;6.22;4.82;;;15.80;68.50;;;;;;4187056;28;20056;-37
2024/01/05 05:03:10;;;;;;;5.22;4.45;;;15.90;70.20;;;;;;4171455;28;20122;-37
2024/01/05 05:05:52;;;;;;;7.22;5.15;;;16.00;69.30;;;;;;4187404;28;20055;-37
2024/01/05 05:08:33;;;;;;;4.45;4.05;;;16.10;69.50;;;;;;4177932;28;20044;-38
2024/01/05 05:11:14;;;;;;;5.00;4.57;;;16.10;68.10;;;;;;4154608;28;20061;-38
2024/01/05 05:13:55;;;;;;;4.35;3.83;;;16.10;67.80;;;;;;4154488;28;20550;-38
2024/01/05 05:16:37;;;;;;;5.13;4.60;;;16.20;69.20;;;;;;4171345;28;20050;-37
2024/01/05 05:19:17;;;;;;;4.10;3.70;;;16.20;67.90;;;;;;4173981;28;20051;-37
2024/01/05 05:22:00;;;;;;;6.30;5.70;;;16.20;68.70;;;;;;4186936;28;20094;-37
2024/01/05 05:24:41;;;;;;;4.75;4.20;;;16.20;68.80;;;;;;4172832;28;20051;-37
2024/01/05 05:27:22;;;;;;;4.20;3.80;;;16.20;69.10;;;;;;4178764;28;20075;-37
2024/01/05 05:30:06;;;;;;;4.38;3.97;;;16.30;68.70;;;;;;4179962;28;20619;-48
2024/01/05 05:32:47;;;;;;;6.47;4.95;;;16.20;68.60;;;;;;4187294;28;20048;-52
2024/01/05 05:35:28;;;;;;;5.00;4.50;;;16.20;68.70;;;;;;4187571;28;20109;-52
2024/01/05 05:38:10;;;;;;;4.45;4.05;;;16.10;68.70;;;;;;4187760;28;20101;-48
2024/01/05 05:40:51;;;;;;;5.13;4.40;;;16.10;69.00;;;;;;4186664;28;20064;-52
2024/01/05 05:43:32;;;;;;;4.93;4.43;;;16.00;69.50;;;;;;4187443;28;20109;-51
2024/01/05 05:46:14;;;;;;;6.30;4.30;;;15.90;70.20;;;;;;4187265;28;20556;-49
2024/01/05 05:48:54;;;;;;;4.80;4.35;;;15.80;71.00;;;;;;4187264;28;20153;-50
2024/01/05 05:51:36;;;;;;;4.30;3.90;;;15.80;71.00;;;;;;4170689;28;20056;-49
2024/01/05 05:54:18;;;;;;;4.20;3.80;;;15.80;71.40;;;;;;4169805;28;20600;-50
2024/01/05 05:56:59;;;;;;;5.03;3.83;;;15.80;71.40;;;;;;4170655;28;20052;-50
2024/01/05 05:59:40;;;;;;;4.90;3.65;;;15.90;70.80;;;;;;4175751;28;20150;-48
2024/01/05 06:02:21;;;;;;;4.88;3.75;;;16.00;70.60;;;;;;4186956;28;20190;-49
2024/01/05 06:05:02;;;;;;;4.80;4.32;;;16.00;70.30;;;;;;4186444;28;20051;-48
2024/01/05 06:07:43;;;;;;;4.53;4.13;;;16.10;70.00;;;;;;4184503;28;20399;-54
2024/01/05 06:10:26;;;;;;;4.43;4.03;;;16.10;69.20;;;;;;4186387;28;20141;-51
2024/01/05 06:13:07;;;;;;;4.20;3.80;;;16.00;69.80;;;;;;4184791;28;20056;-52
2024/01/05 06:15:47;;;;;;;4.25;3.85;;;16.00;70.40;;;;;;4171622;28;20064;-51
2024/01/05 06:18:29;;;;;;;5.93;4.85;;;15.90;70.30;;;;;;4186700;28;20113;-50
2024/01/05 06:21:10;;;;;;;4.65;4.25;;;15.80;71.00;;;;;;4168522;28;20059;-51
2024/01/05 06:23:51;;;;;;;3.58;3.28;;;15.80;70.50;;;;;;4170488;28;20523;-53
2024/01/05 06:26:34;;;;;;;5.15;4.55;;;15.80;70.60;;;;;;4170244;28;20056;-50
2024/01/05 06:29:14;;;;;;;6.43;4.47;;;15.90;70.20;;;;;;4172179;28;20071;-51
2024/01/05 06:31:55;;;;;;;5.63;4.25;;;15.90;70.70;;;;;;4186843;28;20048;-48
2024/01/05 06:34:37;;;;;;;4.57;3.95;;;15.90;71.00;;;;;;4186319;28;20071;-49
2024/01/05 06:37:18;;;;;;;4.78;4.28;;;15.90;70.40;;;;;;4169862;28;20052;-50
2024/01/05 06:39:59;;;;;;;4.05;3.75;;;15.80;71.10;;;;;;4169597;28;20449;-49
2024/01/05 06:42:41;;;;;;;4.35;3.70;;;15.90;72.10;;;;;;4170035;28;20808;-52
2024/01/05 06:45:23;;;;;;;3.65;3.33;;;16.00;72.20;;;;;;4183623;28;20051;-48
2024/01/05 06:48:12;;;;;;;4.20;3.80;;;16.10;71.40;;;;;;4185388;28;20101;-53
2024/01/05 06:50:54;;;;;;;4.13;3.78;;;16.20;70.80;;;;;;4184722;28;20498;-53
2024/01/05 06:53:34;;;;;;;3.22;2.95;;;16.30;70.20;;;;;;4170565;28;20134;-46
2024/01/05 06:56:18;;;;;;;4.30;3.75;;;16.30;70.20;;;;;;4153265;28;20052;-48
2024/01/05 06:59:00;;;;;;;4.57;3.13;;;16.40;69.50;;;;;;4170296;28;20048;-48
2024/01/05 07:01:41;;;;;;;4.38;3.35;;;16.40;69.50;;;;;;4169917;28;20083;-52
2024/01/05 07:04:22;;;;;;;4.15;3.75;;;16.30;69.80;;;;;;4173830;28;20055;-46
2024/01/05 07:07:03;;;;;;;3.85;3.30;;;16.30;69.90;;;;;;4162878;28;20060;-47
2024/01/05 07:09:44;;;;;;;4.20;3.80;;;16.30;69.00;;;;;;4164216;28;20122;-46
2024/01/05 07:12:28;;;;;;;4.80;3.83;;;16.40;69.60;;;;;;4189176;28;20457;-48
2024/01/05 07:15:11;;;;;;;3.95;3.55;;;16.40;69.90;;;;;;4158126;28;20420;-52
2024/01/05 07:17:57;;;;;;;6.40;4.45;;;16.40;70.10;;;;;;4157760;28;20114;-50
2024/01/05 07:20:38;;;;;;;4.30;3.90;;;16.50;69.70;;;;;;4172699;28;20060;-50
2024/01/05 07:23:20;;;;;;;4.70;4.22;;;16.60;69.30;;;;;;4172706;28;20199;-50
2024/01/05 07:26:01;;;;;;;8.40;4.55;;;16.60;69.40;;;;;;4158981;28;20048;-49
2024/01/05 07:28:42;;;;;;;4.30;4.00;;;16.60;69.30;;;;;;4178565;28;20067;-51
2024/01/05 07:31:24;;;;;;;4.57;4.18;;;16.60;69.50;;;;;;4172714;28;20623;-46
2024/01/05 07:34:09;;;;;;;4.72;4.32;;;16.60;69.50;;;;;;4172820;28;20499;-46
2024/01/05 07:36:50;;;;;;;6.20;4.35;;;16.70;68.90;;;;;;4172451;28;20416;-47
2024/01/05 07:39:31;;;;;;;4.65;4.25;;;16.80;68.50;;;;;;4173996;28;20091;-48
2024/01/05 07:42:12;;;;;;;4.63;4.22;;;16.80;68.20;;;;;;4183919;28;20056;-46
2024/01/05 07:44:54;;;;;;;4.50;4.10;;;16.80;65.80;;;;;;4188673;28;20422;-49
2024/01/05 07:47:36;;;;;;;;;;;16.70;67.60;;;;;;4189594;28;20094;-47
2024/01/05 07:50:17;;;;;;;;;;;16.70;67.70;;;;;;4189540;28;20387;-46
2024/01/05 07:52:59;;;;;;;;;;;16.70;66.80;;;;;;4173098;28;20386;-46
2024/01/05 07:55:40;;;;;;;6.15;4.75;;;16.70;65.10;;;;;;4173752;28;19955;-46
2024/01/05 07:58:22;;;;;;;4.78;4.25;;;16.60;67.20;;;;;;4182324;28;20708;-45
2024/01/05 08:01:03;;;;;;;5.38;4.78;;;16.60;67.30;;;;;;4187881;28;20048;-47
2024/01/05 08:03:45;;;;;;;5.57;5.05;;;16.50;68.10;;;;;;4182695;28;20066;-45
2024/01/05 08:06:27;;;;;;;5.72;4.78;;;16.50;68.00;;;;;;4188664;28;20051;-46
2024/01/05 08:09:08;;;;;;;4.88;4.47;;;16.50;66.70;;;;;;4173871;28;20171;-45
2024/01/05 08:11:49;;;;;;;4.82;4.43;;;16.50;67.10;;;;;;4188003;28;20111;-50
2024/01/05 08:14:30;;;;;;;6.65;5.28;;;16.50;66.80;;;;;;4167585;28;20059;-50
2024/01/05 08:17:10;;;;;;;5.53;5.03;;;16.50;66.00;;;;;;4180507;28;20067;-52
2024/01/05 08:19:53;;;;;;;7.32;5.30;;;16.40;67.50;;;;;;4155280;28;20084;-49
2024/01/05 08:22:35;;;;;;;6.78;5.88;;;16.30;68.60;;;;;;4171164;28;20067;-48
2024/01/05 08:25:16;;;;;;;6.30;5.70;;;16.30;69.20;;;;;;4179068;28;20562;-46
2024/01/05 08:27:58;;;;;;;7.53;6.13;;;16.30;69.70;;;;;;4186729;28;20055;-46
2024/01/05 08:30:39;;;;;;;7.28;5.18;;;16.30;69.20;;;;;;4181101;28;20059;-50
2024/01/05 08:33:20;;;;;;;5.38;4.93;;;16.30;68.90;;;;;;4163710;28;20535;-48
2024/01/05 08:36:03;;;;;;;7.68;5.57;;;16.30;68.60;;;;;;4168885;28;20060;-48
2024/01/05 08:38:45;;;;;;;5.60;5.10;;;16.40;68.40;;;;;;4154689;28;20044;-48
2024/01/05 08:41:26;;;;;;;;;;;16.40;67.90;;;;;;4170322;28;20078;-47
2024/01/05 08:44:07;;;;;;;5.78;5.28;;;16.40;68.60;;;;;;4175214;28;19947;-49
2024/01/05 08:46:48;;;;;;;5.30;4.80;;;16.40;67.40;;;;;;4187113;28;20498;-45
2024/01/05 08:49:29;;;;;;;5.82;5.32;;;16.30;66.70;;;;;;4187733;28;20059;-47
2024/01/05 08:52:11;;;;;;;5.82;5.07;;;16.30;68.50;;;;;;4188063;28;20071;-49
2024/01/05 08:54:53;;;;;;;6.03;5.43;;;16.30;69.40;;;;;;4184973;28;20079;-48
2024/01/05 08:57:34;;;;;;;6.40;5.80;;;16.30;68.40;;;;;;4188207;28;20093;-45
2024/01/05 09:00:18;;;;;;;6.13;5.63;;;16.30;67.90;;;;;;4187735;28;20051;-50
2024/01/05 09:03:03;;;;;;;6.20;4.70;;;16.30;66.90;;;;;;4188121;28;20051;-47
2024/01/05 09:05:46;;;;;;;5.47;4.97;;;16.30;67.20;;;;;;4184559;28;20051;-46
2024/01/05 09:08:27;;;;;;;;;;;16.30;68.40;;;;;;4171439;28;20412;-43
2024/01/05 09:11:09;;;;;;;5.70;5.20;;;16.20;69.20;;;;;;4171609;28;19947;-48
2024/01/05 09:13:50;;;;;;;5.57;5.15;;;16.20;69.50;;;;;;4183504;28;20182;-47
2024/01/05 09:16:30;;;;;;;5.90;5.22;;;16.10;69.90;;;;;;4187820;28;20060;-45
2024/01/05 09:19:11;;;;;;;5.72;5.22;;;16.10;70.40;;;;;;4161654;28;20611;-46
2024/01/05 09:21:53;;;;;;;7.13;5.13;;;16.10;68.60;;;;;;4166647;28;20400;-50
2024/01/05 09:24:35;;;;;;;5.70;5.20;;;16.20;69.10;;;;;;4165189;28;20059;-51
2024/01/05 09:27:17;;;;;;;5.15;4.65;;;16.40;70.20;;;;;;4179938;28;20075;-46
2024/01/05 09:29:58;;;;;;;5.40;5.00;;;16.80;68.10;;;;;;4171114;28;20051;-47
2024/01/05 09:32:39;;;;;;;4.70;4.30;;;17.20;67.30;;;;;;4162068;28;20084;-45
2024/01/05 09:35:21;;;;;;;5.25;4.75;;;17.70;65.00;;;;;;4187005;28;20167;-48
2024/01/05 09:38:13;;;;;;;5.70;5.25;;;18.10;62.00;;;;;;4184756;28;20651;-50
2024/01/05 09:41:15;;;;;;;5.82;5.32;;;18.60;62.50;;;;;;4181943;28;20111;-47
2024/01/05 09:44:17;;;;;;;5.13;4.63;;;19.00;58.70;;;;;;4180177;28;20097;-46
2024/01/05 09:47:19;;;;;;;5.43;4.95;;;19.40;58.40;;;;;;4169164;28;20439;-47
2024/01/05 09:50:20;;;;;;;5.78;5.35;;;19.70;58.70;;;;;;4169158;28;20047;-47
2024/01/05 09:53:21;;;;;;;4.80;4.40;;;19.90;57.60;;;;;;4169051;28;20507;-48
2024/01/05 09:56:27;;;;;;;5.07;4.68;;;20.10;57.30;;;;;;4173549;28;20055;-46
2024/01/05 09:59:28;;;;;;;5.22;4.75;;;20.20;57.30;;;;;;4162041;28;20703;-47
2024/01/05 10:02:33;;;;;;;5.13;4.60;;;20.30;57.50;;;;;;4168711;28;20088;-51
2024/01/05 10:05:34;;;;;;;6.05;5.30;;;20.40;57.40;;;;;;4163677;28;20048;-45
2024/01/05 10:08:38;;;;;;;4.97;4.57;;;20.30;57.50;;;;;;4185397;28;20399;-46
2024/01/05 10:11:42;;;;;;;5.25;4.82;;;20.20;57.60;;;;;;4185535;28;20047;-45
2024/01/05 10:14:42;;;;;;;5.80;5.30;;;19.90;57.90;;;;;;4169125;28;20102;-45
2024/01/05 10:17:43;;;;;;;4.90;4.50;;;19.80;58.30;;;;;;4168844;28;20388;-47
2024/01/05 10:20:45;;;;;;;5.70;5.20;;;19.80;58.70;;;;;;4164983;28;20507;-46
2024/01/05 10:23:46;;;;;;;4.75;4.32;;;19.70;58.50;;;;;;4170823;28;20100;-49
2024/01/05 10:27:01;;;;;;;4.60;4.20;;;19.70;58.70;;;;;;4170401;28;20049;-50
2024/01/05 10:30:05;;;;;;;5.20;4.70;;;19.70;58.80;;;;;;4178154;28;20060;-47
2024/01/05 10:33:07;;;;;;;4.45;4.10;;;19.70;58.20;;;;;;4185138;28;20062;-48
2024/01/05 10:36:08;;;;;;;4.47;4.18;;;19.80;58.80;;;;;;4185290;28;20182;-48
2024/01/05 10:39:10;;;;;;;5.07;4.68;;;19.80;58.50;;;;;;4185009;28;20101;-50
2024/01/05 10:42:20;;;;;;;4.80;4.50;;;19.90;57.90;;;;;;4183324;28;20105;-50
2024/01/05 10:45:23;;;;;;;5.55;5.07;;;19.90;57.40;;;;;;4169924;28;20511;-38
2024/01/05 10:48:26;;;;;;;4.97;4.68;;;19.90;57.10;;;;;;4193991;28;20064;-38
2024/01/05 10:51:28;;;;;;;5.28;4.78;;;20.00;57.90;;;;;;4187390;28;20079;-38
2024/01/05 10:54:30;;;;;;;6.00;5.40;;;20.00;58.20;;;;;;4162063;28;20048;-38
2024/01/05 10:57:37;;;;;;;5.82;5.28;;;20.00;56.70;;;;;;4172153;28;20396;-38
2024/01/05 11:00:39;;;;;;;5.35;4.85;;;20.00;55.40;;;;;;4167855;28;20083;-38
2024/01/05 11:03:44;;;;;;;5.22;4.85;;;20.00;55.60;;;;;;4155388;28;20080;-38
2024/01/05 11:06:46;;;;;;;5.72;5.32;;;20.00;55.90;;;;;;4155114;28;20048;-38
2024/01/05 11:09:59;;;;;;;8.20;4.75;;;20.00;55.00;;;;;;4170652;28;20105;-38
2024/01/05 11:13:16;;;;;;;6.93;6.10;;;20.00;53.40;;;;;;4162592;28;20052;-38
2024/01/05 11:16:50;;;;;;;6.32;5.70;;;19.90;54.20;;;;;;4171063;28;20056;-38
2024/01/05 11:20:19;;;;;;;5.60;5.20;;;19.70;57.10;;;;;;4154348;28;20435;-38
2024/01/05 11:23:22;;;;;;;5.25;4.85;;;19.60;58.40;;;;;;4170513;28;20056;-38
2024/01/05 11:26:35;;;;;;;6.75;6.10;;;19.60;58.90;;;;;;4161761;28;20052;-38
2024/01/05 11:29:51;;;;;;;7.82;5.47;;;19.70;59.00;;;;;;4172457;28;20060;-38
2024/01/05 11:32:52;;;;;;;5.78;5.25;;;19.70;58.70;;;;;;4187715;28;20075;-38
2024/01/05 11:35:53;;;;;;;5.43;4.93;;;19.70;56.80;;;;;;4187459;28;20051;-39
2024/01/05 11:38:54;;;;;;;5.60;5.10;;;19.70;58.30;;;;;;4170841;28;20059;-38
2024/01/05 11:41:55;;;;;;;6.00;5.25;;;19.70;56.50;;;;;;4187448;28;20305;-38
2024/01/05 11:44:58;;;;;;;4.90;4.50;;;19.60;57.50;;;;;;4172098;28;20060;-38
2024/01/05 11:47:59;;;;;;;4.85;4.32;;;19.50;58.90;;;;;;4179603;28;20353;-38
2024/01/05 11:51:00;;;;;;;4.78;4.38;;;19.50;59.30;;;;;;4170936;28;20048;-39
2024/01/05 11:54:01;;;;;;;4.63;4.22;;;19.50;59.50;;;;;;4170813;28;20060;-38
2024/01/05 11:57:04;;;;;;;4.03;3.72;;;19.50;59.40;;;;;;4170415;28;20121;-38
2024/01/05 12:00:09;;;;;;;4.30;4.00;;;19.60;58.80;;;;;;4164659;28;20549;-38
2024/01/05 12:03:10;;;;;;;3.97;3.70;;;19.60;59.10;;;;;;4187175;28;20056;-38
2024/01/05 12:06:13;;;;;;;3.70;3.40;;;19.60;58.70;;;;;;4187064;28;20063;-38
2024/01/05 12:09:14;;;;;;;4.05;3.72;;;19.60;58.70;;;;;;4186902;28;20079;-38
2024/01/05 12:12:18;;;;;;;3.95;3.72;;;19.70;57.60;;;;;;4187254;28;20195;-39
2024/01/05 12:15:21;;;;;;;4.70;3.17;;;19.70;55.90;;;;;;4177275;28;20055;-38
2024/01/05 12:18:25;;;;;;;4.00;3.53;;;19.70;57.40;;;;;;4170321;28;20056;-38
2024/01/05 12:21:31;;;;;;;3.80;3.50;;;19.60;55.90;;;;;;4153674;28;20068;-38
2024/01/05 12:24:32;;;;;;;3.67;3.30;;;19.60;56.40;;;;;;4170059;28;20056;-39
2024/01/05 12:27:36;;;;;;;3.88;3.58;;;19.50;55.80;;;;;;4170092;28;20519;-38
2024/01/05 12:30:39;;;;;;;3.30;3.05;;;19.50;58.00;;;;;;4178590;28;20079;-38
2024/01/05 12:33:41;;;;;;;4.43;3.40;;;19.40;58.90;;;;;;4155054;28;20551;-38
2024/01/05 12:36:43;;;;;;;4.32;3.75;;;19.40;59.40;;;;;;4169999;28;20083;-38
2024/01/05 12:39:44;;;;;;;7.53;4.20;;;19.40;59.60;;;;;;4169863;28;20545;-38
2024/01/05 12:42:46;;;;;;;3.58;3.28;;;19.50;59.40;;;;;;4171879;28;20109;-38
2024/01/05 12:45:49;;;;;;;;;;;19.50;58.60;;;;;;4187167;28;20097;-38
2024/01/05 12:48:50;;;;;;;4.43;4.03;;;19.60;57.80;;;;;;4177735;28;20067;-38
2024/01/05 12:51:52;;;;;;;3.60;3.28;;;19.50;58.20;;;;;;4153253;28;20052;-38
2024/01/05 12:54:54;;;;;;;3.28;3.08;;;19.50;59.00;;;;;;4169874;28;20062;-38
2024/01/05 12:58:00;;;;;;;6.43;3.78;;;19.50;59.30;;;;;;4181608;28;20055;-38
2024/01/05 13:01:03;;;;;;;3.47;3.22;;;19.50;59.30;;;;;;4186123;28;20055;-38
2024/01/05 13:04:05;;;;;;;3.40;3.10;;;19.50;59.10;;;;;;4186046;28;20446;-38
2024/01/05 13:07:08;;;;;;;3.92;3.58;;;19.40;58.10;;;;;;4186072;28;20151;-39
2024/01/05 13:10:09;;;;;;;3.47;3.17;;;19.50;57.20;;;;;;4153089;28;20183;-38
2024/01/05 13:13:10;;;;;;;3.45;3.20;;;19.50;57.60;;;;;;4169306;28;20051;-38
2024/01/05 13:16:12;;;;;;;5.10;2.95;;;19.50;59.30;;;;;;4181000;28;20487;-38
2024/01/05 13:19:14;;;;;;;2.97;2.78;;;19.50;59.10;;;;;;4175366;28;20199;-38
2024/01/05 13:22:16;;;;;;;3.35;3.00;;;19.40;56.30;;;;;;4169706;28;20412;-38
2024/01/05 13:25:17;;;;;;;4.75;3.22;;;19.30;57.90;;;;;;4173140;28;20125;-38
2024/01/05 13:28:19;;;;;;;3.60;3.30;;;19.10;60.00;;;;;;4177217;28;20068;-38
2024/01/05 13:31:21;;;;;;;3.05;2.85;;;18.90;58.70;;;;;;4152577;28;20056;-38
2024/01/05 13:34:22;;;;;;;2.67;2.47;;;18.70;60.00;;;;;;4168768;28;20048;-39
2024/01/05 13:37:24;;;;;;;2.72;2.63;;;18.50;60.70;;;;;;4168908;28;20048;-38
2024/01/05 13:40:25;;;;;;;3.05;2.85;;;18.30;60.90;;;;;;4178043;28;20084;-38
2024/01/05 13:43:26;;;;;;;3.17;2.80;;;18.10;61.20;;;;;;4179238;28;20171;-38
2024/01/05 13:46:29;;;;;;;2.67;2.47;;;17.90;61.80;;;;;;4169209;28;20056;-38
2024/01/05 13:49:32;;;;;;;2.85;2.50;;;17.70;62.10;;;;;;4176337;28;20120;-38
2024/01/05 13:52:33;;;;;;;2.60;2.50;;;17.60;64.20;;;;;;4168153;28;20060;-39
2024/01/05 13:55:34;;;;;;;2.80;2.60;;;17.40;62.20;;;;;;4168657;28;20064;-39
2024/01/05 13:58:36;;;;;;;2.47;2.38;;;17.20;63.00;;;;;;4170628;28;20174;-38
2024/01/05 14:01:38;;;;;;;3.00;2.80;;;17.10;63.20;;;;;;4178305;28;20055;-38
2024/01/05 14:04:40;;;;;;;2.58;2.38;;;16.90;63.30;;;;;;4174188;28;20164;-38
2024/01/05 14:07:41;;;;;;;2.10;2.00;;;16.80;64.10;;;;;;4186246;28;20094;-39
2024/01/05 14:10:42;;;;;;;2.65;2.35;;;16.60;63.60;;;;;;4184966;28;20055;-39
2024/01/05 14:13:43;;;;;;;2.83;2.63;;;16.50;64.20;;;;;;4181932;28;20097;-39
2024/01/05 14:16:45;;;;;;;2.15;2.05;;;16.40;64.50;;;;;;4183182;28;20097;-39
2024/01/05 14:19:46;;;;;;;2.50;2.30;;;16.30;65.20;;;;;;4178566;28;20044;-40
2024/01/05 14:22:47;;;;;;;2.35;2.13;;;16.20;64.70;;;;;;4152476;28;20052;-39
2024/01/05 14:25:48;;;;;;;2.33;2.22;;;16.10;64.80;;;;;;4175872;28;20191;-39
2024/01/05 14:28:49;;;;;;;2.13;2.03;;;16.00;65.80;;;;;;4168730;28;20074;-39
2024/01/05 14:31:52;;;;;;;2.70;2.50;;;15.90;65.80;;;;;;4157696;28;20060;-39
2024/01/05 14:34:52;;;;;;;2.30;2.10;;;15.80;67.00;;;;;;4178050;28;20932;-38
2024/01/05 14:37:54;;;;;;;2.70;2.60;;;15.70;66.50;;;;;;4168270;28;20404;-39